METAR Data
IDs: Format: Raw Decoded Include TAF

Data at: 2100 UTC 01 Dec 2021

VMMC 012030Z 36015KT CAVOK 16/06 Q1021 NOSIG